createdAt,value
2019-03-23T00:02:12.700Z,8.00
2019-03-23T00:04:41.258Z,7.90
2019-03-23T00:07:09.938Z,7.80
2019-03-23T00:09:38.396Z,7.80
2019-03-23T00:12:06.932Z,7.70
2019-03-23T00:14:35.400Z,7.50
2019-03-23T00:17:03.944Z,7.40
2019-03-23T00:19:32.459Z,7.30
2019-03-23T00:22:00.994Z,7.20
2019-03-23T00:24:29.528Z,7.10
2019-03-23T00:26:58.028Z,7.00
2019-03-23T00:29:26.567Z,6.90
2019-03-23T00:31:55.040Z,7.00
2019-03-23T00:34:23.547Z,7.10
2019-03-23T00:36:52.021Z,7.00
2019-03-23T00:39:20.619Z,7.10
2019-03-23T00:41:49.125Z,7.10
2019-03-23T00:44:17.655Z,7.10
2019-03-23T00:46:46.132Z,7.10
2019-03-23T00:49:14.636Z,7.00
2019-03-23T00:51:43.094Z,6.90
2019-03-23T00:54:11.564Z,6.80
2019-03-23T00:56:40.060Z,6.70
2019-03-23T00:59:08.535Z,6.70
2019-03-23T01:01:37.002Z,6.50
2019-03-23T01:04:05.564Z,6.60
2019-03-23T01:06:34.091Z,6.70
2019-03-23T01:09:04.409Z,6.60
2019-03-23T01:11:32.970Z,6.40
2019-03-23T01:14:01.440Z,6.30
2019-03-23T01:16:29.904Z,6.20
2019-03-23T01:18:58.490Z,6.20
2019-03-23T01:21:27.032Z,6.40
2019-03-23T01:23:55.495Z,6.70
2019-03-23T01:26:23.995Z,6.70
2019-03-23T01:28:52.464Z,6.60
2019-03-23T01:31:20.940Z,6.40
2019-03-23T01:33:49.437Z,6.30
2019-03-23T01:36:17.900Z,6.20
2019-03-23T01:38:46.370Z,6.20
2019-03-23T01:41:14.882Z,6.00
2019-03-23T01:43:43.344Z,6.10
2019-03-23T01:46:11.808Z,6.00
2019-03-23T01:48:40.307Z,5.90
2019-03-23T01:51:08.915Z,5.90
2019-03-23T01:53:37.466Z,5.80
2019-03-23T01:56:05.977Z,5.70
2019-03-23T01:58:34.512Z,5.70
2019-03-23T02:01:02.990Z,5.70
2019-03-23T02:03:31.497Z,5.70
2019-03-23T02:05:59.967Z,5.60
2019-03-23T02:08:28.435Z,5.50
2019-03-23T02:10:57.468Z,5.50
2019-03-23T02:13:25.931Z,5.50
2019-03-23T02:15:54.408Z,5.50
2019-03-23T02:18:22.904Z,5.50
2019-03-23T02:20:51.505Z,5.50
2019-03-23T02:23:19.977Z,5.50
2019-03-23T02:25:48.484Z,5.40
2019-03-23T02:28:17.016Z,5.30
2019-03-23T02:30:45.546Z,5.20
2019-03-23T02:33:14.129Z,5.00
2019-03-23T02:35:42.664Z,5.00
2019-03-23T02:38:11.130Z,5.00
2019-03-23T02:40:39.694Z,5.00
2019-03-23T02:43:08.159Z,5.10
2019-03-23T02:45:36.635Z,5.10
2019-03-23T02:48:06.005Z,5.00
2019-03-23T02:50:34.539Z,4.90
2019-03-23T02:53:03.002Z,4.80
2019-03-23T02:55:31.491Z,4.70
2019-03-23T02:58:00.027Z,4.60
2019-03-23T03:00:28.505Z,4.50
2019-03-23T03:02:57.060Z,4.50
2019-03-23T03:05:25.607Z,4.50
2019-03-23T03:07:54.088Z,4.50
2019-03-23T03:10:41.875Z,4.50
2019-03-23T03:13:10.504Z,4.40
2019-03-23T03:15:39.043Z,4.40
2019-03-23T03:18:08.246Z,4.30
2019-03-23T03:20:36.776Z,4.20
2019-03-23T03:23:05.427Z,4.10
2019-03-23T03:25:33.991Z,4.00
2019-03-23T03:28:02.564Z,4.00
2019-03-23T03:30:31.074Z,4.00
2019-03-23T03:32:59.646Z,4.10
2019-03-23T03:35:28.189Z,4.00
2019-03-23T03:37:57.374Z,4.00
2019-03-23T03:40:26.227Z,3.90
2019-03-23T03:42:54.831Z,3.90
2019-03-23T03:45:25.545Z,3.80
2019-03-23T03:47:54.052Z,3.70
2019-03-23T03:50:22.581Z,3.60
2019-03-23T03:52:51.120Z,3.40
2019-03-23T03:55:19.659Z,3.50
2019-03-23T03:57:48.246Z,3.50
2019-03-23T04:00:16.853Z,3.40
2019-03-23T04:02:45.364Z,3.40
2019-03-23T04:05:14.140Z,3.30
2019-03-23T04:07:42.601Z,3.40
2019-03-23T04:10:11.318Z,3.20
2019-03-23T04:12:39.855Z,3.20
2019-03-23T04:15:10.568Z,3.10
2019-03-23T04:17:39.157Z,3.10
2019-03-23T04:20:09.421Z,3.00
2019-03-23T04:22:37.966Z,3.10
2019-03-23T04:25:07.794Z,3.10
2019-03-23T04:27:36.338Z,3.30
2019-03-23T04:30:07.404Z,3.30
2019-03-23T04:32:35.974Z,3.30
2019-03-23T04:35:05.878Z,3.30
2019-03-23T04:37:34.414Z,3.30
2019-03-23T04:40:03.001Z,3.20
2019-03-23T04:42:31.527Z,3.20
2019-03-23T04:44:59.997Z,3.30
2019-03-23T04:47:28.496Z,3.30
2019-03-23T04:49:56.969Z,3.20
2019-03-23T04:52:25.428Z,3.10
2019-03-23T04:54:53.931Z,3.00
2019-03-23T04:57:22.421Z,3.00
2019-03-23T04:59:50.961Z,3.00
2019-03-23T05:02:19.466Z,3.20
2019-03-23T05:04:47.987Z,3.30
2019-03-23T05:07:16.520Z,3.20
2019-03-23T05:09:45.016Z,3.10
2019-03-23T05:12:13.491Z,3.00
2019-03-23T05:14:41.951Z,3.00
2019-03-23T05:17:10.676Z,3.00
2019-03-23T05:19:39.222Z,3.00
2019-03-23T05:22:07.680Z,3.00
2019-03-23T05:24:36.264Z,3.10
2019-03-23T05:27:04.804Z,3.10
2019-03-23T05:29:33.270Z,3.20
2019-03-23T05:32:01.857Z,3.20
2019-03-23T05:34:30.391Z,3.30
2019-03-23T05:36:58.860Z,3.40
2019-03-23T05:39:27.447Z,3.50
2019-03-23T05:41:56.123Z,3.70
2019-03-23T05:44:24.587Z,3.90
2019-03-23T05:46:54.383Z,4.10
2019-03-23T05:49:23.121Z,4.30
2019-03-23T05:51:51.599Z,4.50
2019-03-23T05:54:20.105Z,4.50
2019-03-23T05:56:48.639Z,4.60
2019-03-23T05:59:17.114Z,4.80
2019-03-23T06:01:45.671Z,5.00
2019-03-23T06:04:14.173Z,5.10
2019-03-23T06:06:42.712Z,5.20
2019-03-23T06:09:11.211Z,5.40
2019-03-23T06:11:39.684Z,5.50
2019-03-23T06:14:08.155Z,5.70
2019-03-23T06:16:36.717Z,5.70
2019-03-23T06:19:05.526Z,6.00
2019-03-23T06:21:34.000Z,6.00
2019-03-23T06:24:02.710Z,6.10
2019-03-23T06:26:31.236Z,6.30
2019-03-23T06:28:59.698Z,6.30
2019-03-23T06:31:28.195Z,6.40
2019-03-23T06:33:56.655Z,6.50
2019-03-23T06:36:25.191Z,6.50
2019-03-23T06:38:53.775Z,6.60
2019-03-23T06:41:22.335Z,6.80
2019-03-23T06:43:50.867Z,7.00
2019-03-23T06:46:19.364Z,6.80
2019-03-23T06:48:47.833Z,6.80
2019-03-23T06:51:16.287Z,6.70
2019-03-23T06:53:44.858Z,6.70
2019-03-23T06:56:13.314Z,6.70
2019-03-23T06:58:41.780Z,6.70
2019-03-23T07:01:10.356Z,6.80
2019-03-23T07:03:38.822Z,6.60
2019-03-23T07:06:07.355Z,6.70
2019-03-23T07:08:35.863Z,6.60
2019-03-23T07:11:04.463Z,6.60
2019-03-23T07:13:32.923Z,6.70
2019-03-23T07:16:01.423Z,6.40
2019-03-23T07:18:29.960Z,6.60
2019-03-23T07:20:58.649Z,6.80
2019-03-23T07:23:27.259Z,6.50
2019-03-23T07:25:56.095Z,6.30
2019-03-23T07:28:24.560Z,6.20
2019-03-23T07:30:53.059Z,6.20
2019-03-23T07:33:21.601Z,6.50
2019-03-23T07:35:50.144Z,6.80
2019-03-23T07:38:18.765Z,6.90
2019-03-23T07:40:47.380Z,7.30
2019-03-23T07:43:15.835Z,7.10
2019-03-23T07:45:44.413Z,7.50
2019-03-23T07:48:12.878Z,7.70
2019-03-23T07:50:41.412Z,7.80
2019-03-23T07:53:09.979Z,7.90
2019-03-23T07:55:38.439Z,8.20
2019-03-23T07:58:08.248Z,8.50
2019-03-23T08:00:36.764Z,8.40
2019-03-23T08:03:05.235Z,8.70
2019-03-23T08:05:33.699Z,8.80
2019-03-23T08:08:02.196Z,8.90
2019-03-23T08:10:34.796Z,9.50
2019-03-23T08:13:03.408Z,9.90
2019-03-23T08:15:31.969Z,9.40
2019-03-23T08:18:00.516Z,9.40
2019-03-23T08:20:28.998Z,9.60
2019-03-23T08:22:57.747Z,9.60
2019-03-23T08:25:26.215Z,9.70
2019-03-23T08:27:54.741Z,9.40
2019-03-23T08:30:23.328Z,9.20
2019-03-23T08:32:51.791Z,9.50
2019-03-23T08:35:20.316Z,9.50
2019-03-23T08:37:48.851Z,9.70
2019-03-23T08:40:17.316Z,9.70
2019-03-23T08:42:45.783Z,9.90
2019-03-23T08:45:14.301Z,10.10
2019-03-23T08:47:42.839Z,10.30
2019-03-23T08:50:11.574Z,10.30
2019-03-23T08:52:40.105Z,10.50
2019-03-23T08:55:08.830Z,10.40
2019-03-23T08:57:37.295Z,10.50
2019-03-23T09:00:07.527Z,10.60
2019-03-23T09:02:36.019Z,10.80
2019-03-23T09:05:05.914Z,10.90
2019-03-23T09:07:34.491Z,11.50
2019-03-23T09:10:04.463Z,11.50
2019-03-23T09:12:32.944Z,11.90
2019-03-23T09:15:01.523Z,12.50
2019-03-23T09:17:30.051Z,12.80
2019-03-23T09:20:00.392Z,13.20
2019-03-23T09:22:29.029Z,13.30
2019-03-23T09:24:57.915Z,13.90
2019-03-23T09:27:26.428Z,13.80
2019-03-23T09:29:54.936Z,14.20
2019-03-23T09:32:23.475Z,14.10
2019-03-23T09:34:51.941Z,14.30
2019-03-23T09:37:20.532Z,13.80
2019-03-23T09:39:48.990Z,13.70
2019-03-23T09:42:17.455Z,13.70
2019-03-23T09:44:46.045Z,13.80
2019-03-23T09:47:14.586Z,13.70
2019-03-23T09:49:43.140Z,13.50
2019-03-23T09:52:11.706Z,13.50
2019-03-23T09:54:40.172Z,14.00
2019-03-23T09:57:09.206Z,14.30
2019-03-23T09:59:37.736Z,15.00
2019-03-23T10:02:06.469Z,14.70
2019-03-23T10:04:34.942Z,14.70
2019-03-23T10:07:03.507Z,14.80
2019-03-23T10:09:31.976Z,14.70
2019-03-23T10:12:00.450Z,14.70
2019-03-23T10:14:28.951Z,15.50
2019-03-23T10:16:57.433Z,15.70
2019-03-23T10:19:25.971Z,15.60
2019-03-23T10:21:54.554Z,15.20
2019-03-23T10:24:23.020Z,15.90
2019-03-23T10:26:52.344Z,16.70
2019-03-23T10:29:21.000Z,16.50
2019-03-23T10:31:49.475Z,16.20
2019-03-23T10:34:18.020Z,15.90
2019-03-23T10:36:46.520Z,15.80
2019-03-23T10:39:15.004Z,16.40
2019-03-23T10:41:43.548Z,16.50
2019-03-23T10:44:12.112Z,17.00
2019-03-23T10:46:40.583Z,17.60
2019-03-23T10:49:10.683Z,17.30
2019-03-23T10:51:39.374Z,17.20
2019-03-23T10:54:10.906Z,17.30
2019-03-23T10:56:40.987Z,17.60
2019-03-23T10:59:11.027Z,18.30
2019-03-23T11:01:42.147Z,18.70
2019-03-23T11:04:10.658Z,19.60
2019-03-23T11:06:39.227Z,20.40
2019-03-23T11:09:08.043Z,20.20
2019-03-23T11:11:36.504Z,20.50
2019-03-23T11:14:05.072Z,20.10
2019-03-23T11:16:33.531Z,19.30
2019-03-23T11:19:02.006Z,18.50
2019-03-23T11:21:30.519Z,18.30
2019-03-23T11:23:59.131Z,18.80
2019-03-23T11:26:28.191Z,19.00
2019-03-23T11:28:57.248Z,18.80
2019-03-23T11:31:25.708Z,19.20
2019-03-23T11:33:54.184Z,18.80
2019-03-23T11:36:22.769Z,19.30
2019-03-23T11:38:51.235Z,19.00
2019-03-23T11:41:19.772Z,19.30
2019-03-23T11:43:48.275Z,18.60
2019-03-23T11:46:17.121Z,19.00
2019-03-23T11:48:45.693Z,19.40
2019-03-23T11:51:14.219Z,19.80
2019-03-23T11:53:42.751Z,20.10
2019-03-23T11:56:11.221Z,20.50
2019-03-23T11:58:39.832Z,20.20
2019-03-23T12:01:08.309Z,19.60
2019-03-23T12:03:36.872Z,20.00
2019-03-23T12:06:05.375Z,20.10
2019-03-23T12:08:33.844Z,20.80
2019-03-23T12:11:03.240Z,20.00
2019-03-23T12:13:31.148Z,21.20
2019-03-23T12:15:59.680Z,20.90
2019-03-23T12:18:28.145Z,21.50
2019-03-23T12:20:56.900Z,22.20
2019-03-23T12:23:25.467Z,23.30
2019-03-23T12:25:54.037Z,22.50
2019-03-23T12:28:22.543Z,22.10
2019-03-23T12:30:51.252Z,21.90
2019-03-23T12:33:21.410Z,22.00
2019-03-23T12:35:50.174Z,22.80
2019-03-23T12:38:18.718Z,23.10
2019-03-23T12:40:47.255Z,24.30
2019-03-23T12:43:15.888Z,24.30
2019-03-23T12:45:44.351Z,23.50
2019-03-23T12:48:12.824Z,24.00
2019-03-23T12:50:41.423Z,23.40
2019-03-23T12:53:09.996Z,24.20
2019-03-23T12:55:38.462Z,22.70
2019-03-23T12:58:07.090Z,23.80
2019-03-23T13:00:35.650Z,25.20
2019-03-23T13:03:04.255Z,25.80
2019-03-23T13:05:32.753Z,23.60
2019-03-23T13:08:01.217Z,22.10
2019-03-23T13:10:29.751Z,23.60
2019-03-23T13:12:58.493Z,25.30
2019-03-23T13:15:26.999Z,25.10
2019-03-23T13:17:55.570Z,25.10
2019-03-23T13:20:26.726Z,25.40
2019-03-23T13:22:55.232Z,26.30
2019-03-23T13:25:23.698Z,25.10
2019-03-23T13:27:52.341Z,24.10
2019-03-23T13:30:20.900Z,24.80
2019-03-23T13:32:49.742Z,26.40
2019-03-23T13:35:18.236Z,26.00
2019-03-23T13:37:46.772Z,26.70
2019-03-23T13:40:15.315Z,26.30
2019-03-23T13:42:43.823Z,25.80
2019-03-23T13:45:12.537Z,25.80
2019-03-23T13:47:41.062Z,25.50
2019-03-23T13:50:10.717Z,24.80
2019-03-23T13:52:39.397Z,25.10
2019-03-23T13:55:09.952Z,26.10
2019-03-23T13:57:38.529Z,25.20
2019-03-23T14:00:07.800Z,25.60
2019-03-23T14:02:35.583Z,25.10
2019-03-23T14:05:12.255Z,24.90
2019-03-23T14:07:35.631Z,24.90
2019-03-23T14:10:05.445Z,24.40
2019-03-23T14:12:33.960Z,24.70
2019-03-23T14:15:02.507Z,24.70
2019-03-23T14:17:31.055Z,25.60
2019-03-23T14:19:59.628Z,26.20
2019-03-23T14:22:28.159Z,24.90
2019-03-23T14:24:56.711Z,24.50
2019-03-23T14:27:25.204Z,24.30
2019-03-23T14:29:53.663Z,24.20
2019-03-23T14:32:22.137Z,24.20
2019-03-23T14:34:50.818Z,25.20
2019-03-23T14:37:19.280Z,25.60
2019-03-23T14:39:47.752Z,25.10
2019-03-23T14:42:16.265Z,24.50
2019-03-23T14:44:44.724Z,25.00
2019-03-23T14:47:13.264Z,26.50
2019-03-23T14:49:41.760Z,26.80
2019-03-23T14:52:10.222Z,27.10
2019-03-23T14:54:38.768Z,26.50
2019-03-23T14:57:07.263Z,26.30
2019-03-23T14:59:35.763Z,26.20
2019-03-23T15:02:04.296Z,26.10
2019-03-23T15:04:32.861Z,24.80
2019-03-23T15:07:01.344Z,25.90
2019-03-23T15:09:29.892Z,26.50
2019-03-23T15:11:58.415Z,25.40
2019-03-23T15:14:26.958Z,25.80
2019-03-23T15:16:55.511Z,26.20
2019-03-23T15:19:24.249Z,25.60
2019-03-23T15:21:52.817Z,26.10
2019-03-23T15:24:21.402Z,28.00
2019-03-23T15:26:49.994Z,27.60
2019-03-23T15:29:18.547Z,28.70
2019-03-23T15:31:47.089Z,29.20
2019-03-23T15:34:15.713Z,29.50
2019-03-23T15:36:44.787Z,29.00
2019-03-23T15:39:13.253Z,28.50
2019-03-23T15:41:41.761Z,27.30
2019-03-23T15:44:10.300Z,27.60
2019-03-23T15:46:38.841Z,27.30
2019-03-23T15:49:07.407Z,26.10
2019-03-23T15:51:35.930Z,27.10
2019-03-23T15:54:04.536Z,26.40
2019-03-23T15:56:33.099Z,25.80
2019-03-23T15:59:01.565Z,24.90
2019-03-23T16:01:30.064Z,24.70
2019-03-23T16:03:58.563Z,23.90
2019-03-23T16:06:27.097Z,23.90
2019-03-23T16:08:55.556Z,24.30
2019-03-23T16:11:24.109Z,24.10
2019-03-23T16:13:52.696Z,24.00
2019-03-23T16:16:21.160Z,23.50
2019-03-23T16:18:49.724Z,23.10
2019-03-23T16:21:18.204Z,22.60
2019-03-23T16:23:46.701Z,21.70
2019-03-23T16:26:15.310Z,21.40
2019-03-23T16:28:43.848Z,21.00
2019-03-23T16:31:12.318Z,20.70
2019-03-23T16:33:40.820Z,20.20
2019-03-23T16:36:09.519Z,19.80
2019-03-23T16:38:38.192Z,19.60
2019-03-23T16:41:08.416Z,19.10
2019-03-23T16:43:36.884Z,18.70
2019-03-23T16:46:05.351Z,18.20
2019-03-23T16:48:33.856Z,17.90
2019-03-23T16:51:02.461Z,17.60
2019-03-23T16:53:30.925Z,17.20
2019-03-23T16:55:59.417Z,17.00
2019-03-23T16:58:27.896Z,16.80
2019-03-23T17:00:56.433Z,16.60
2019-03-23T17:03:25.083Z,16.40
2019-03-23T17:05:53.552Z,16.20
2019-03-23T17:08:22.022Z,16.10
2019-03-23T17:10:50.530Z,15.90
2019-03-23T17:13:19.065Z,15.70
2019-03-23T17:15:47.599Z,15.50
2019-03-23T17:18:16.165Z,15.30
2019-03-23T17:20:44.841Z,15.30
2019-03-23T17:23:13.308Z,15.10
2019-03-23T17:25:41.818Z,15.10
2019-03-23T17:28:10.357Z,14.90
2019-03-23T17:30:39.029Z,14.90
2019-03-23T17:33:08.975Z,14.90
2019-03-23T17:35:37.606Z,14.80
2019-03-23T17:38:06.228Z,14.70
2019-03-23T17:40:36.005Z,14.60
2019-03-23T17:43:06.124Z,14.50
2019-03-23T17:45:34.655Z,14.40
2019-03-23T17:48:03.237Z,14.30
2019-03-23T17:50:31.794Z,14.40
2019-03-23T17:53:00.327Z,14.20
2019-03-23T17:55:28.904Z,14.00
2019-03-23T17:57:57.444Z,13.80
2019-03-23T18:00:26.767Z,13.70
2019-03-23T18:02:55.336Z,13.60
2019-03-23T18:05:23.873Z,13.40
2019-03-23T18:07:52.336Z,13.30
2019-03-23T18:10:20.901Z,13.20
2019-03-23T18:12:49.408Z,13.20
2019-03-23T18:15:17.951Z,13.10
2019-03-23T18:17:46.451Z,13.00
2019-03-23T18:20:15.038Z,12.90
2019-03-23T18:22:43.536Z,12.90
2019-03-23T18:25:12.109Z,12.90
2019-03-23T18:27:40.577Z,12.80
2019-03-23T18:30:27.525Z,12.70
2019-03-23T18:32:55.999Z,12.70
2019-03-23T18:35:24.538Z,12.50
2019-03-23T18:37:53.048Z,12.40
2019-03-23T18:40:21.521Z,12.20
2019-03-23T18:42:50.382Z,12.20
2019-03-23T18:45:18.956Z,12.20
2019-03-23T18:47:47.491Z,12.00
2019-03-23T18:50:16.904Z,11.90
2019-03-23T18:52:45.435Z,11.90
2019-03-23T18:55:13.970Z,11.90
2019-03-23T18:57:47.679Z,11.90
2019-03-23T19:00:36.871Z,11.80
2019-03-23T19:03:05.787Z,11.70
2019-03-23T19:05:34.665Z,11.60
2019-03-23T19:08:03.389Z,11.50
2019-03-23T19:10:31.864Z,11.50
2019-03-23T19:13:00.477Z,11.40
2019-03-23T19:15:28.988Z,11.40
2019-03-23T19:17:57.479Z,11.30
2019-03-23T19:20:25.945Z,11.30
2019-03-23T19:22:54.456Z,11.20
2019-03-23T19:25:22.927Z,11.20
2019-03-23T19:27:51.385Z,11.20
2019-03-23T19:30:20.430Z,11.20
2019-03-23T19:32:48.902Z,11.20
2019-03-23T19:35:17.373Z,11.20
2019-03-23T19:37:45.871Z,11.20
2019-03-23T19:40:14.476Z,11.10
2019-03-23T19:42:42.977Z,11.10
2019-03-23T19:45:12.032Z,11.10
2019-03-23T19:47:40.626Z,11.10
2019-03-23T19:50:09.857Z,11.10
2019-03-23T19:52:38.508Z,11.00
2019-03-23T19:55:08.126Z,10.90
2019-03-23T19:57:35.864Z,10.90
2019-03-23T20:00:07.444Z,10.90
2019-03-23T20:02:35.981Z,10.90
2019-03-23T20:05:06.284Z,10.90
2019-03-23T20:07:34.952Z,10.90
2019-03-23T20:10:05.355Z,10.80
2019-03-23T20:12:33.870Z,10.70
2019-03-23T20:15:02.603Z,10.70
2019-03-23T20:17:31.072Z,10.60
2019-03-23T20:19:59.533Z,10.70
2019-03-23T20:22:28.060Z,10.60
2019-03-23T20:24:56.594Z,10.60
2019-03-23T20:27:25.167Z,10.50
2019-03-23T20:29:53.671Z,10.30
2019-03-23T20:32:22.213Z,10.10
2019-03-23T20:34:50.762Z,10.00
2019-03-23T20:37:19.374Z,10.10
2019-03-23T20:39:47.917Z,10.20
2019-03-23T20:42:16.567Z,10.20
2019-03-23T20:44:45.085Z,10.10
2019-03-23T20:47:14.809Z,10.10
2019-03-23T20:49:42.957Z,10.20
2019-03-23T20:52:11.460Z,10.20
2019-03-23T20:54:40.006Z,10.20
2019-03-23T20:57:08.483Z,10.20
2019-03-23T20:59:36.994Z,10.10
2019-03-23T21:02:05.548Z,10.10
2019-03-23T21:04:34.023Z,10.10
2019-03-23T21:07:02.546Z,10.10
2019-03-23T21:09:31.021Z,10.00
2019-03-23T21:11:59.571Z,10.10
2019-03-23T21:14:28.148Z,10.10
2019-03-23T21:16:56.704Z,10.00
2019-03-23T21:19:25.225Z,9.90
2019-03-23T21:21:53.819Z,9.80
2019-03-23T21:24:22.296Z,9.80
2019-03-23T21:26:50.872Z,9.80
2019-03-23T21:29:19.451Z,9.70
2019-03-23T21:31:47.995Z,9.70
2019-03-23T21:34:16.463Z,9.60
2019-03-23T21:36:44.963Z,9.50
2019-03-23T21:39:13.435Z,9.50
2019-03-23T21:41:41.908Z,9.50
2019-03-23T21:44:10.423Z,9.40
2019-03-23T21:46:38.958Z,9.30
2019-03-23T21:49:07.691Z,9.30
2019-03-23T21:51:36.203Z,9.30
2019-03-23T21:54:04.939Z,9.30
2019-03-23T21:56:33.463Z,9.10
2019-03-23T21:59:01.978Z,9.00
2019-03-23T22:01:30.437Z,8.90
2019-03-23T22:03:58.905Z,8.70
2019-03-23T22:06:27.492Z,8.50
2019-03-23T22:08:55.980Z,8.60
2019-03-23T22:11:24.511Z,8.70
2019-03-23T22:13:53.016Z,8.80
2019-03-23T22:16:21.475Z,8.90
2019-03-23T22:18:49.953Z,8.80
2019-03-23T22:21:18.527Z,8.80
2019-03-23T22:23:46.996Z,8.90
2019-03-23T22:26:15.461Z,8.90
2019-03-23T22:28:43.967Z,8.80
2019-03-23T22:31:12.443Z,8.60
2019-03-23T22:33:40.912Z,8.60
2019-03-23T22:36:09.427Z,8.60
2019-03-23T22:38:37.892Z,8.60
2019-03-23T22:41:06.355Z,8.70
2019-03-23T22:43:34.948Z,8.70
2019-03-23T22:46:03.571Z,8.70
2019-03-23T22:48:32.206Z,8.50
2019-03-23T22:51:00.989Z,8.50
2019-03-23T22:53:29.523Z,8.40
2019-03-23T22:55:57.992Z,8.40
2019-03-23T22:58:26.787Z,8.40
2019-03-23T23:00:58.446Z,8.40
2019-03-23T23:03:27.019Z,8.40
2019-03-23T23:05:55.699Z,8.40
2019-03-23T23:08:24.161Z,8.40
2019-03-23T23:10:52.629Z,8.60
2019-03-23T23:13:21.129Z,8.50
2019-03-23T23:15:49.605Z,8.40
2019-03-23T23:18:18.143Z,8.50
2019-03-23T23:20:46.635Z,8.40
2019-03-23T23:23:15.116Z,8.50
2019-03-23T23:25:43.676Z,8.60
2019-03-23T23:28:12.175Z,8.60
2019-03-23T23:30:40.724Z,8.90
2019-03-23T23:33:09.339Z,9.00
2019-03-23T23:35:37.839Z,9.00
2019-03-23T23:38:06.307Z,9.30
2019-03-23T23:40:34.916Z,9.20
2019-03-23T23:43:03.428Z,9.20
2019-03-23T23:45:31.965Z,9.30
2019-03-23T23:48:00.432Z,9.30
2019-03-23T23:50:28.951Z,9.40
2019-03-23T23:52:57.682Z,9.40
2019-03-23T23:55:26.295Z,9.40
2019-03-23T23:57:54.791Z,9.40
